createdAt,value
2019-05-19T00:01:11.841Z,13.30
2019-05-19T00:03:42.075Z,13.30
2019-05-19T00:06:14.558Z,13.30
2019-05-19T00:08:46.173Z,13.40
2019-05-19T00:11:26.691Z,13.40
2019-05-19T00:13:59.970Z,13.40
2019-05-19T00:16:29.976Z,13.40
2019-05-19T00:19:02.644Z,13.50
2019-05-19T00:21:32.666Z,13.50
2019-05-19T00:24:07.149Z,13.50
2019-05-19T00:26:36.891Z,13.40
2019-05-19T00:29:07.897Z,13.40
2019-05-19T00:31:45.757Z,13.40
2019-05-19T00:34:16.947Z,13.40
2019-05-19T00:36:51.056Z,13.50
2019-05-19T00:39:24.815Z,13.40
2019-05-19T00:41:53.801Z,13.40
2019-05-19T00:44:49.404Z,13.40
2019-05-19T00:47:19.650Z,13.40
2019-05-19T00:49:57.112Z,13.40
2019-05-19T00:52:34.873Z,13.40
2019-05-19T00:55:05.494Z,13.30
2019-05-19T00:57:51.547Z,13.40
2019-05-19T01:00:24.657Z,13.40
2019-05-19T01:03:09.740Z,13.30
2019-05-19T01:05:45.827Z,13.20
2019-05-19T01:08:17.571Z,13.20
2019-05-19T01:10:54.830Z,13.20
2019-05-19T01:13:31.222Z,13.10
2019-05-19T01:16:04.086Z,13.00
2019-05-19T01:18:40.864Z,12.90
2019-05-19T01:21:13.067Z,12.90
2019-05-19T01:23:43.031Z,12.80
2019-05-19T01:26:22.049Z,13.90
2019-05-19T01:28:51.821Z,12.80
2019-05-19T01:31:26.341Z,12.80
2019-05-19T01:33:57.819Z,12.80
2019-05-19T01:36:30.195Z,12.80
2019-05-19T01:39:03.683Z,12.80
2019-05-19T01:41:40.678Z,12.80
2019-05-19T01:44:27.081Z,12.80
2019-05-19T01:47:05.385Z,12.80
2019-05-19T01:49:39.067Z,12.80
2019-05-19T01:52:11.482Z,12.80
2019-05-19T01:54:45.759Z,12.80
2019-05-19T01:57:18.540Z,12.90
2019-05-19T02:00:14.974Z,12.90
2019-05-19T02:02:55.904Z,12.90
2019-05-19T02:05:29.936Z,12.90
2019-05-19T02:08:02.727Z,12.90
2019-05-19T02:10:33.189Z,12.90
2019-05-19T02:13:06.464Z,12.90
2019-05-19T02:15:36.768Z,12.80
2019-05-19T02:18:14.403Z,12.60
2019-05-19T02:20:45.050Z,12.60
2019-05-19T02:23:19.414Z,12.50
2019-05-19T02:25:56.308Z,12.50
2019-05-19T02:28:24.629Z,12.50
2019-05-19T02:31:03.362Z,12.50
2019-05-19T02:33:36.114Z,12.50
2019-05-19T02:36:07.118Z,12.50
2019-05-19T02:38:41.521Z,12.50
2019-05-19T02:41:16.014Z,12.50
2019-05-19T02:43:54.314Z,12.50
2019-05-19T02:46:37.241Z,12.50
2019-05-19T02:49:14.849Z,12.50
2019-05-19T02:51:52.705Z,12.50
2019-05-19T02:54:29.115Z,12.50
2019-05-19T02:57:04.899Z,12.50
2019-05-19T02:59:38.628Z,12.50
2019-05-19T03:02:13.014Z,12.50
2019-05-19T03:04:45.240Z,12.50
2019-05-19T03:07:17.317Z,12.60
2019-05-19T03:09:47.473Z,12.60
2019-05-19T03:12:20.711Z,12.60
2019-05-19T03:14:55.610Z,12.60
2019-05-19T03:17:25.679Z,12.60
2019-05-19T03:19:57.653Z,12.50
2019-05-19T03:22:27.779Z,12.50
2019-05-19T03:24:58.950Z,12.50
2019-05-19T03:27:35.913Z,12.50
2019-05-19T03:30:26.403Z,12.60
2019-05-19T03:33:02.935Z,12.70
2019-05-19T03:35:33.819Z,12.80
2019-05-19T03:38:06.673Z,12.80
2019-05-19T03:40:42.636Z,12.80
2019-05-19T03:43:12.882Z,12.50
2019-05-19T03:45:49.113Z,12.50
2019-05-19T03:48:30.178Z,12.50
2019-05-19T03:51:03.180Z,12.50
2019-05-19T03:53:38.855Z,12.60
2019-05-19T03:56:11.678Z,12.60
2019-05-19T03:58:46.057Z,12.60
2019-05-19T04:01:17.726Z,12.70
2019-05-19T04:03:50.887Z,12.70
2019-05-19T04:09:18.167Z,12.70
2019-05-19T04:11:50.843Z,12.80
2019-05-19T04:14:33.469Z,12.90
2019-05-19T04:17:11.414Z,12.90
2019-05-19T04:19:44.124Z,13.00
2019-05-19T04:22:16.790Z,12.90
2019-05-19T04:24:49.844Z,12.90
2019-05-19T04:27:19.680Z,12.90
2019-05-19T04:29:52.591Z,12.90
2019-05-19T04:32:22.421Z,13.00
2019-05-19T04:34:53.945Z,13.00
2019-05-19T04:37:23.914Z,13.10
2019-05-19T04:39:57.087Z,13.10
2019-05-19T04:42:28.708Z,13.10
2019-05-19T04:44:58.508Z,13.10
2019-05-19T04:47:28.418Z,13.20
2019-05-19T04:50:09.576Z,13.20
2019-05-19T04:52:39.430Z,13.20
2019-05-19T04:55:10.059Z,13.30
2019-05-19T04:57:43.304Z,13.40
2019-05-19T05:00:13.977Z,13.40
2019-05-19T05:02:48.191Z,13.40
2019-05-19T05:05:22.320Z,13.50
2019-05-19T05:07:56.262Z,13.50
2019-05-19T05:10:38.521Z,13.50
2019-05-19T05:13:08.448Z,13.50
2019-05-19T05:15:41.873Z,13.50
2019-05-19T05:18:12.478Z,13.40
2019-05-19T05:20:52.189Z,13.30
2019-05-19T05:23:23.608Z,13.50
2019-05-19T05:25:59.397Z,13.50
2019-05-19T05:28:34.973Z,13.50
2019-05-19T05:31:06.446Z,13.60
2019-05-19T05:33:39.308Z,13.60
2019-05-19T05:36:13.612Z,13.80
2019-05-19T05:38:45.739Z,14.10
2019-05-19T05:41:24.996Z,14.40
2019-05-19T05:43:58.170Z,14.60
2019-05-19T05:46:39.663Z,14.40
2019-05-19T05:49:12.691Z,14.20
2019-05-19T05:51:53.579Z,14.30
2019-05-19T05:54:25.236Z,14.50
2019-05-19T05:56:57.292Z,14.40
2019-05-19T05:59:29.924Z,14.00
2019-05-19T06:01:59.770Z,14.20
2019-05-19T06:04:29.496Z,14.50
2019-05-19T06:07:01.086Z,14.80
2019-05-19T06:09:30.602Z,14.90
2019-05-19T06:12:00.525Z,14.80
2019-05-19T06:14:30.079Z,14.50
2019-05-19T06:16:59.815Z,14.70
2019-05-19T06:19:30.131Z,15.10
2019-05-19T06:21:59.952Z,14.90
2019-05-19T06:24:34.451Z,14.60
2019-05-19T06:27:06.675Z,14.70
2019-05-19T06:29:54.985Z,15.00
2019-05-19T06:32:32.106Z,15.50
2019-05-19T06:35:04.144Z,15.60
2019-05-19T06:37:34.535Z,15.90
2019-05-19T06:40:04.165Z,15.50
2019-05-19T06:42:33.808Z,15.30
2019-05-19T06:45:10.348Z,15.50
2019-05-19T06:47:42.117Z,15.80
2019-05-19T06:50:43.726Z,15.90
2019-05-19T06:53:14.705Z,16.00
2019-05-19T06:55:44.611Z,16.20
2019-05-19T06:58:13.953Z,15.90
2019-05-19T07:00:43.310Z,16.30
2019-05-19T07:03:13.534Z,16.80
2019-05-19T07:05:43.414Z,17.10
2019-05-19T07:08:12.636Z,17.40
2019-05-19T07:10:42.020Z,17.80
2019-05-19T07:13:11.668Z,18.00
2019-05-19T07:15:40.942Z,18.20
2019-05-19T07:18:10.194Z,18.40
2019-05-19T07:20:39.815Z,18.30
2019-05-19T07:23:09.017Z,18.40
2019-05-19T07:25:38.296Z,18.30
2019-05-19T07:28:07.742Z,18.40
2019-05-19T07:30:36.941Z,18.40
2019-05-19T07:33:06.169Z,18.30
2019-05-19T07:35:35.486Z,18.20
2019-05-19T07:38:07.386Z,18.10
2019-05-19T07:40:35.962Z,18.10
2019-05-19T07:43:05.240Z,18.20
2019-05-19T07:45:34.498Z,18.10
2019-05-19T07:48:03.960Z,18.00
2019-05-19T07:50:37.514Z,18.00
2019-05-19T07:53:04.736Z,18.10
2019-05-19T07:55:34.888Z,18.00
2019-05-19T07:58:04.127Z,18.00
2019-05-19T08:00:33.582Z,18.10
2019-05-19T08:03:02.883Z,18.10
2019-05-19T08:05:32.089Z,18.20
2019-05-19T08:08:01.328Z,18.10
2019-05-19T08:10:30.543Z,18.20
2019-05-19T08:12:59.739Z,18.30
2019-05-19T08:15:29.025Z,18.40
2019-05-19T08:17:58.336Z,18.40
2019-05-19T08:20:27.814Z,18.40
2019-05-19T08:22:57.259Z,18.40
2019-05-19T08:25:26.866Z,18.50
2019-05-19T08:28:06.522Z,18.60
2019-05-19T08:30:27.022Z,18.80
2019-05-19T08:32:57.425Z,19.30
2019-05-19T08:35:27.023Z,20.00
2019-05-19T08:37:56.302Z,20.00
2019-05-19T08:40:26.569Z,20.20
2019-05-19T08:42:55.857Z,20.50
2019-05-19T08:45:25.158Z,19.80
2019-05-19T08:47:54.441Z,20.00
2019-05-19T08:50:23.907Z,20.70
2019-05-19T08:52:53.126Z,20.80
2019-05-19T08:55:22.476Z,20.70
2019-05-19T08:57:51.706Z,20.80
2019-05-19T09:00:22.061Z,21.30
2019-05-19T09:02:51.269Z,21.80
2019-05-19T09:05:20.875Z,21.50
2019-05-19T09:07:50.378Z,21.60
2019-05-19T09:10:20.681Z,21.80
2019-05-19T09:12:49.973Z,21.80
2019-05-19T09:15:19.699Z,22.30
2019-05-19T09:17:48.997Z,22.70
2019-05-19T09:20:18.662Z,22.70
2019-05-19T09:22:47.938Z,22.40
2019-05-19T09:25:17.490Z,22.60
2019-05-19T09:27:47.080Z,22.80
2019-05-19T09:30:16.382Z,23.00
2019-05-19T09:32:46.730Z,22.90
2019-05-19T09:35:16.149Z,22.20
2019-05-19T09:37:45.488Z,21.80
2019-05-19T09:40:15.258Z,22.40
2019-05-19T09:42:44.562Z,23.10
2019-05-19T09:45:13.984Z,23.40
2019-05-19T09:47:43.263Z,23.10
2019-05-19T09:50:12.850Z,23.10
2019-05-19T09:52:42.381Z,23.40
2019-05-19T09:55:11.867Z,23.00
2019-05-19T09:57:41.242Z,22.90
2019-05-19T10:00:11.914Z,22.70
2019-05-19T10:02:41.237Z,22.70
2019-05-19T10:05:10.667Z,23.40
2019-05-19T10:07:39.973Z,23.40
2019-05-19T10:10:12.598Z,23.10
2019-05-19T10:12:41.826Z,22.50
2019-05-19T10:15:12.480Z,22.70
2019-05-19T10:17:41.716Z,22.90
2019-05-19T10:20:11.729Z,22.60
2019-05-19T10:22:41.021Z,23.20
2019-05-19T10:25:21.598Z,23.50
2019-05-19T10:27:42.679Z,23.60
2019-05-19T10:30:12.524Z,23.20
2019-05-19T10:32:41.765Z,22.60
2019-05-19T10:35:11.629Z,22.10
2019-05-19T10:37:40.785Z,22.90
2019-05-19T10:40:10.480Z,23.60
2019-05-19T10:42:39.674Z,23.60
2019-05-19T10:45:09.521Z,23.10
2019-05-19T10:47:39.560Z,22.60
2019-05-19T10:50:09.097Z,21.80
2019-05-19T10:52:38.395Z,21.60
2019-05-19T10:55:08.599Z,21.80
2019-05-19T10:57:37.750Z,22.20
2019-05-19T11:00:07.526Z,22.10
2019-05-19T11:02:39.589Z,21.80
2019-05-19T11:05:11.214Z,22.20
2019-05-19T11:07:40.161Z,22.70
2019-05-19T11:10:09.358Z,23.20
2019-05-19T11:12:38.535Z,23.80
2019-05-19T11:15:09.055Z,24.00
2019-05-19T11:17:38.285Z,24.30
2019-05-19T11:20:07.434Z,24.00
2019-05-19T11:22:36.698Z,24.90
2019-05-19T11:25:05.946Z,24.80
2019-05-19T11:27:35.170Z,24.60
2019-05-19T11:30:04.668Z,24.30
2019-05-19T11:32:33.818Z,24.60
2019-05-19T11:35:03.426Z,24.20
2019-05-19T11:37:32.581Z,24.50
2019-05-19T11:40:01.778Z,25.20
2019-05-19T11:42:30.932Z,25.90
2019-05-19T11:45:00.527Z,25.00
2019-05-19T11:47:29.710Z,24.20
2019-05-19T11:49:59.069Z,25.40
2019-05-19T11:52:28.913Z,25.50
2019-05-19T11:54:58.012Z,25.00
2019-05-19T11:57:27.775Z,25.80
2019-05-19T11:59:57.110Z,26.10
2019-05-19T12:02:43.277Z,26.40
2019-05-19T12:05:12.932Z,26.40
2019-05-19T12:07:42.601Z,26.80
2019-05-19T12:10:12.607Z,27.50
2019-05-19T12:12:41.904Z,26.60
2019-05-19T12:15:12.255Z,27.40
2019-05-19T12:17:42.035Z,27.80
2019-05-19T12:20:11.279Z,26.90
2019-05-19T12:22:40.566Z,27.00
2019-05-19T12:25:09.889Z,26.00
2019-05-19T12:27:39.109Z,26.10
2019-05-19T12:30:08.516Z,25.90
2019-05-19T12:32:38.300Z,26.20
2019-05-19T12:35:07.893Z,26.60
2019-05-19T12:37:39.125Z,26.60
2019-05-19T12:40:08.631Z,26.70
2019-05-19T12:42:37.972Z,26.10
2019-05-19T12:45:08.992Z,26.20
2019-05-19T12:47:38.381Z,27.00
2019-05-19T12:50:08.418Z,27.40
2019-05-19T12:52:37.866Z,27.10
2019-05-19T12:55:07.713Z,27.30
2019-05-19T12:57:36.962Z,27.60
2019-05-19T13:00:06.522Z,27.00
2019-05-19T13:02:38.058Z,26.90
2019-05-19T13:05:07.586Z,26.90
2019-05-19T13:07:37.040Z,26.80
2019-05-19T13:10:06.591Z,27.30
2019-05-19T13:12:35.730Z,27.70
2019-05-19T13:15:05.725Z,28.30
2019-05-19T13:17:35.261Z,28.60
2019-05-19T13:20:07.934Z,28.40
2019-05-19T13:22:39.307Z,28.50
2019-05-19T13:25:08.617Z,28.90
2019-05-19T13:27:39.205Z,27.90
2019-05-19T13:30:08.926Z,27.50
2019-05-19T13:32:38.609Z,27.60
2019-05-19T13:35:09.140Z,27.80
2019-05-19T13:37:38.398Z,26.90
2019-05-19T13:40:07.799Z,26.50
2019-05-19T13:42:36.988Z,27.50
2019-05-19T13:45:06.498Z,27.50
2019-05-19T13:47:35.726Z,28.10
2019-05-19T13:50:06.059Z,28.00
2019-05-19T13:52:35.524Z,27.60
2019-05-19T13:55:05.425Z,27.60
2019-05-19T13:57:34.662Z,27.70
2019-05-19T14:00:04.513Z,27.90
2019-05-19T14:02:33.983Z,29.20
2019-05-19T14:05:03.247Z,29.30
2019-05-19T14:07:32.433Z,28.70
2019-05-19T14:10:02.056Z,26.60
2019-05-19T14:12:31.624Z,27.00
2019-05-19T14:15:04.029Z,27.60
2019-05-19T14:17:31.987Z,27.80
2019-05-19T14:20:01.205Z,27.90
2019-05-19T14:22:30.522Z,28.00
2019-05-19T14:24:59.806Z,27.70
2019-05-19T14:27:35.564Z,27.40
2019-05-19T14:30:05.150Z,26.50
2019-05-19T14:32:34.370Z,25.90
2019-05-19T14:35:03.626Z,26.60
2019-05-19T14:37:33.267Z,26.90
2019-05-19T14:40:02.698Z,27.60
2019-05-19T14:43:04.960Z,27.40
2019-05-19T14:45:34.624Z,27.80
2019-05-19T14:48:04.018Z,28.40
2019-05-19T14:50:33.214Z,27.80
2019-05-19T14:53:02.496Z,27.30
2019-05-19T14:55:32.042Z,27.60
2019-05-19T14:58:01.292Z,27.20
2019-05-19T15:00:30.650Z,26.70
2019-05-19T15:03:00.150Z,27.50
2019-05-19T15:05:30.210Z,28.20
2019-05-19T15:07:59.539Z,28.30
2019-05-19T15:10:28.716Z,28.40
2019-05-19T15:12:58.144Z,28.30
2019-05-19T15:15:27.450Z,28.40
2019-05-19T15:17:57.140Z,27.10
2019-05-19T15:20:26.391Z,27.00
2019-05-19T15:22:55.730Z,26.40
2019-05-19T15:25:25.206Z,25.10
2019-05-19T15:28:00.176Z,24.20
2019-05-19T15:30:25.406Z,24.40
2019-05-19T15:32:55.659Z,24.20
2019-05-19T15:35:25.474Z,24.10
2019-05-19T15:37:56.640Z,23.70
2019-05-19T15:40:28.102Z,23.30
2019-05-19T15:42:57.621Z,23.60
2019-05-19T15:45:27.013Z,23.30
2019-05-19T15:47:56.537Z,23.10
2019-05-19T15:50:26.627Z,22.90
2019-05-19T15:52:58.215Z,23.00
2019-05-19T15:55:27.328Z,23.20
2019-05-19T15:57:57.746Z,23.00
2019-05-19T16:00:26.994Z,23.00
2019-05-19T16:02:56.736Z,22.30
2019-05-19T16:05:26.696Z,21.50
2019-05-19T16:08:03.028Z,21.20
2019-05-19T16:10:32.556Z,20.70
2019-05-19T16:13:02.120Z,20.20
2019-05-19T16:15:32.734Z,19.70
2019-05-19T16:18:01.894Z,19.20
2019-05-19T16:20:31.203Z,19.10
2019-05-19T16:23:00.506Z,19.10
2019-05-19T16:25:29.626Z,19.00
2019-05-19T16:27:58.973Z,19.00
2019-05-19T16:30:28.130Z,19.10
2019-05-19T16:32:59.686Z,19.00
2019-05-19T16:35:28.933Z,18.80
2019-05-19T16:37:58.099Z,18.60
2019-05-19T16:40:29.984Z,18.50
2019-05-19T16:43:02.299Z,18.30
2019-05-19T16:45:49.702Z,18.20
2019-05-19T16:48:19.571Z,18.10
2019-05-19T16:50:49.319Z,17.90
2019-05-19T16:53:18.735Z,17.80
2019-05-19T16:55:48.745Z,17.90
2019-05-19T16:58:21.508Z,17.90
2019-05-19T17:00:50.430Z,18.00
2019-05-19T17:03:19.790Z,18.00
2019-05-19T17:05:49.066Z,18.00
2019-05-19T17:08:18.239Z,17.80
2019-05-19T17:10:47.654Z,17.80
2019-05-19T17:13:17.061Z,17.90
2019-05-19T17:15:46.411Z,18.00
2019-05-19T17:18:15.928Z,18.20
2019-05-19T17:20:45.241Z,18.20
2019-05-19T17:23:14.489Z,18.30
2019-05-19T17:25:43.761Z,18.30
2019-05-19T17:28:13.417Z,18.30
2019-05-19T17:30:42.781Z,18.20
2019-05-19T17:33:12.326Z,18.20
2019-05-19T17:35:42.762Z,18.20
2019-05-19T17:38:12.248Z,18.10
2019-05-19T17:40:41.788Z,18.00
2019-05-19T17:43:10.918Z,17.90
2019-05-19T17:45:40.321Z,17.90
2019-05-19T17:48:18.753Z,18.00
2019-05-19T17:50:40.658Z,18.10
2019-05-19T17:53:10.120Z,18.00
2019-05-19T17:55:39.379Z,18.00
2019-05-19T17:58:09.800Z,18.00
2019-05-19T18:00:40.476Z,18.10
2019-05-19T18:03:14.346Z,18.20
2019-05-19T18:05:46.370Z,18.30
2019-05-19T18:08:15.642Z,18.50
2019-05-19T18:10:45.237Z,18.50
2019-05-19T18:13:17.747Z,18.70
2019-05-19T18:15:49.534Z,18.90
2019-05-19T18:18:18.680Z,19.30
2019-05-19T18:20:47.890Z,19.30
2019-05-19T18:23:25.064Z,19.30
2019-05-19T18:26:01.055Z,18.90
2019-05-19T18:28:30.410Z,18.90
2019-05-19T18:30:59.784Z,19.10
2019-05-19T18:33:36.792Z,19.10
2019-05-19T18:36:06.510Z,19.20
2019-05-19T18:38:35.799Z,19.30
2019-05-19T18:41:05.100Z,19.20
2019-05-19T18:43:34.452Z,19.20
2019-05-19T18:46:03.854Z,19.00
2019-05-19T18:48:33.201Z,18.90
2019-05-19T18:51:02.621Z,18.70
2019-05-19T18:53:34.072Z,18.60
2019-05-19T18:56:08.952Z,18.40
2019-05-19T18:58:38.506Z,18.40
2019-05-19T19:01:08.881Z,18.20
2019-05-19T19:03:38.214Z,18.20
2019-05-19T19:06:11.038Z,18.10
2019-05-19T19:08:47.056Z,17.80
2019-05-19T19:11:22.236Z,17.60
2019-05-19T19:13:52.265Z,17.40
2019-05-19T19:16:21.892Z,17.20
2019-05-19T19:18:51.396Z,17.10
2019-05-19T19:21:20.806Z,17.00
2019-05-19T19:23:50.958Z,16.90
2019-05-19T19:26:20.606Z,16.90
2019-05-19T19:28:49.806Z,16.90
2019-05-19T19:31:19.086Z,16.80
2019-05-19T19:33:48.403Z,16.90
2019-05-19T19:36:17.541Z,16.90
2019-05-19T19:38:46.832Z,17.10
2019-05-19T19:41:16.085Z,17.20
2019-05-19T19:43:45.447Z,17.20
2019-05-19T19:46:14.689Z,17.20
2019-05-19T19:48:43.936Z,17.80
2019-05-19T19:51:13.224Z,17.20
2019-05-19T19:53:42.402Z,17.10
2019-05-19T19:56:11.772Z,17.10
2019-05-19T19:58:47.150Z,17.10
2019-05-19T20:01:16.886Z,17.20
2019-05-19T20:03:48.059Z,17.00
2019-05-19T20:06:17.227Z,17.00
2019-05-19T20:08:48.582Z,16.90
2019-05-19T20:11:18.212Z,16.90
2019-05-19T20:13:47.428Z,16.80
2019-05-19T20:16:17.006Z,16.70
2019-05-19T20:18:46.534Z,16.60
2019-05-19T20:21:15.724Z,16.50
2019-05-19T20:23:45.134Z,16.50
2019-05-19T20:26:14.584Z,16.40
2019-05-19T20:28:43.891Z,16.10
2019-05-19T20:31:13.404Z,16.00
2019-05-19T20:33:42.750Z,16.00
2019-05-19T20:36:11.962Z,16.10
2019-05-19T20:38:41.596Z,16.10
2019-05-19T20:41:10.807Z,16.10
2019-05-19T20:43:40.850Z,16.20
2019-05-19T20:46:10.288Z,16.10
2019-05-19T20:48:39.507Z,16.10
2019-05-19T20:51:08.650Z,15.90
2019-05-19T20:53:38.799Z,15.70
2019-05-19T20:56:07.974Z,15.70
2019-05-19T20:58:37.483Z,15.60
2019-05-19T21:01:06.906Z,15.50
2019-05-19T21:03:36.013Z,15.50
2019-05-19T21:06:05.173Z,15.50
2019-05-19T21:08:34.457Z,15.50
2019-05-19T21:11:03.694Z,15.60
2019-05-19T21:13:33.006Z,15.60
2019-05-19T21:16:02.260Z,15.60
2019-05-19T21:18:31.484Z,15.60
2019-05-19T21:21:10.439Z,15.60
2019-05-19T21:23:39.683Z,15.70
2019-05-19T21:26:09.280Z,15.60
2019-05-19T21:28:39.617Z,15.80
2019-05-19T21:31:09.904Z,15.80
2019-05-19T21:33:40.840Z,15.80
2019-05-19T21:36:10.867Z,15.70
2019-05-19T21:38:41.236Z,15.70
2019-05-19T21:41:11.674Z,15.60
2019-05-19T21:43:40.773Z,15.50
2019-05-19T21:46:09.928Z,15.40
2019-05-19T21:48:48.208Z,15.30
2019-05-19T21:51:17.722Z,15.20
2019-05-19T21:53:46.837Z,15.10
2019-05-19T21:56:16.110Z,15.10
2019-05-19T21:58:45.633Z,15.20
2019-05-19T22:01:22.780Z,15.30
2019-05-19T22:03:45.834Z,15.40
2019-05-19T22:06:15.859Z,15.40
2019-05-19T22:08:45.522Z,15.50
2019-05-19T22:11:14.820Z,15.60
2019-05-19T22:13:44.141Z,15.70
2019-05-19T22:16:13.938Z,15.70
2019-05-19T22:18:43.214Z,15.70
2019-05-19T22:21:12.556Z,15.50
2019-05-19T22:23:41.736Z,15.30
2019-05-19T22:26:11.584Z,15.10
2019-05-19T22:28:41.037Z,15.10
2019-05-19T22:31:10.458Z,15.10
2019-05-19T22:33:39.728Z,15.10
2019-05-19T22:36:09.050Z,15.00
2019-05-19T22:38:38.176Z,15.00
2019-05-19T22:41:07.375Z,14.90
2019-05-19T22:43:36.773Z,14.90
2019-05-19T22:46:06.294Z,14.90
2019-05-19T22:48:36.780Z,14.90
2019-05-19T22:51:06.025Z,14.80
2019-05-19T22:53:36.217Z,14.70
2019-05-19T22:56:05.406Z,14.70
2019-05-19T22:58:36.667Z,14.60
2019-05-19T23:01:05.971Z,14.50
2019-05-19T23:03:35.207Z,14.50
2019-05-19T23:06:04.342Z,14.50
2019-05-19T23:08:33.551Z,14.40
2019-05-19T23:11:02.724Z,14.40
2019-05-19T23:13:32.577Z,14.40
2019-05-19T23:16:01.673Z,14.30
2019-05-19T23:18:30.791Z,14.30
2019-05-19T23:20:59.961Z,14.10
2019-05-19T23:23:29.066Z,14.10
2019-05-19T23:25:58.322Z,14.00
2019-05-19T23:28:27.682Z,13.80
2019-05-19T23:30:56.792Z,13.70
2019-05-19T23:33:26.022Z,13.70
2019-05-19T23:35:55.250Z,13.60
2019-05-19T23:38:24.586Z,13.50
2019-05-19T23:40:53.769Z,13.50
2019-05-19T23:43:22.897Z,13.40
2019-05-19T23:45:52.562Z,13.40
2019-05-19T23:48:21.710Z,13.30
2019-05-19T23:50:51.558Z,13.30
2019-05-19T23:53:20.746Z,13.20
2019-05-19T23:55:50.487Z,13.10
2019-05-19T23:58:19.933Z,13.00
